sensor_id;sensor_type;location;lat;lon;timestamp;pressure;altitude;pressure_sealevel;temperature;humidity
39613;BME280;25303;48.896;13.342;2023-02-26T00:01:45;91749.28;;;-3.10;71.04
39613;BME280;25303;48.896;13.342;2023-02-26T00:04:29;91744.94;;;-3.08;71.40
39613;BME280;25303;48.896;13.342;2023-02-26T00:07:12;91741.41;;;-3.06;71.73
39613;BME280;25303;48.896;13.342;2023-02-26T00:09:56;91741.03;;;-3.12;71.20
39613;BME280;25303;48.896;13.342;2023-02-26T00:12:39;91741.34;;;-3.17;71.08
39613;BME280;25303;48.896;13.342;2023-02-26T00:15:23;91736.31;;;-3.30;71.17
39613;BME280;25303;48.896;13.342;2023-02-26T00:18:08;91733.72;;;-3.28;71.25
39613;BME280;25303;48.896;13.342;2023-02-26T00:20:53;91739.34;;;-3.25;71.70
39613;BME280;25303;48.896;13.342;2023-02-26T00:23:36;91741.53;;;-3.20;71.79
39613;BME280;25303;48.896;13.342;2023-02-26T00:26:22;91751.31;;;-3.15;71.71
39613;BME280;25303;48.896;13.342;2023-02-26T00:29:05;91744.66;;;-3.16;71.69
39613;BME280;25303;48.896;13.342;2023-02-26T00:31:49;91749.72;;;-3.16;71.76
39613;BME280;25303;48.896;13.342;2023-02-26T00:34:32;91748.69;;;-3.14;71.93
39613;BME280;25303;48.896;13.342;2023-02-26T00:37:24;91750.19;;;-3.11;71.89
39613;BME280;25303;48.896;13.342;2023-02-26T00:40:15;91751.00;;;-3.11;71.92
39613;BME280;25303;48.896;13.342;2023-02-26T00:43:03;91750.50;;;-3.16;71.56
39613;BME280;25303;48.896;13.342;2023-02-26T00:45:56;91756.56;;;-3.18;71.53
39613;BME280;25303;48.896;13.342;2023-02-26T00:48:47;91756.75;;;-3.22;71.48
39613;BME280;25303;48.896;13.342;2023-02-26T00:51:40;91751.72;;;-3.22;71.56
39613;BME280;25303;48.896;13.342;2023-02-26T00:54:28;91751.59;;;-3.20;71.73
39613;BME280;25303;48.896;13.342;2023-02-26T00:57:11;91746.56;;;-3.20;71.57
39613;BME280;25303;48.896;13.342;2023-02-26T00:59:55;91753.13;;;-3.17;71.72
39613;BME280;25303;48.896;13.342;2023-02-26T01:02:39;91754.63;;;-3.15;71.78
39613;BME280;25303;48.896;13.342;2023-02-26T01:05:23;91753.59;;;-3.12;71.93
39613;BME280;25303;48.896;13.342;2023-02-26T01:08:11;91761.97;;;-3.12;71.90
39613;BME280;25303;48.896;13.342;2023-02-26T01:10:57;91770.25;;;-3.10;71.90
39613;BME280;25303;48.896;13.342;2023-02-26T01:13:40;91758.25;;;-3.19;71.98
39613;BME280;25303;48.896;13.342;2023-02-26T01:16:26;91766.19;;;-3.12;72.02
39613;BME280;25303;48.896;13.342;2023-02-26T01:19:19;91760.88;;;-3.08;71.91
39613;BME280;25303;48.896;13.342;2023-02-26T01:22:09;91763.00;;;-3.14;71.39
39613;BME280;25303;48.896;13.342;2023-02-26T01:24:58;91749.59;;;-3.15;71.69
39613;BME280;25303;48.896;13.342;2023-02-26T01:27:43;91744.47;;;-3.26;70.96
39613;BME280;25303;48.896;13.342;2023-02-26T01:30:29;91746.88;;;-3.38;70.60
39613;BME280;25303;48.896;13.342;2023-02-26T01:33:20;91746.38;;;-3.30;70.89
39613;BME280;25303;48.896;13.342;2023-02-26T01:36:09;91750.09;;;-3.36;70.59
39613;BME280;25303;48.896;13.342;2023-02-26T01:39:00;91755.44;;;-3.27;70.76
39613;BME280;25303;48.896;13.342;2023-02-26T01:41:46;91755.03;;;-3.21;71.11
39613;BME280;25303;48.896;13.342;2023-02-26T01:44:34;91770.75;;;-3.17;71.23
39613;BME280;25303;48.896;13.342;2023-02-26T01:47:20;91766.44;;;-3.15;71.23
39613;BME280;25303;48.896;13.342;2023-02-26T01:50:10;91766.31;;;-3.14;71.24
39613;BME280;25303;48.896;13.342;2023-02-26T01:53:15;91775.66;;;-3.16;71.41
39613;BME280;25303;48.896;13.342;2023-02-26T01:56:01;91779.09;;;-3.17;70.30
39613;BME280;25303;48.896;13.342;2023-02-26T01:58:47;91780.50;;;-3.13;70.86
39613;BME280;25303;48.896;13.342;2023-02-26T02:01:31;91774.69;;;-3.26;71.13
39613;BME280;25303;48.896;13.342;2023-02-26T02:04:14;91771.47;;;-3.15;71.33
39613;BME280;25303;48.896;13.342;2023-02-26T02:06:59;91777.69;;;-3.21;70.38
39613;BME280;25303;48.896;13.342;2023-02-26T02:09:43;91787.34;;;-3.15;70.68
39613;BME280;25303;48.896;13.342;2023-02-26T02:12:31;91784.63;;;-3.12;70.71
39613;BME280;25303;48.896;13.342;2023-02-26T02:15:21;91784.44;;;-3.09;70.51
39613;BME280;25303;48.896;13.342;2023-02-26T02:18:12;91794.19;;;-3.04;70.58
39613;BME280;25303;48.896;13.342;2023-02-26T02:21:15;91794.19;;;-3.04;70.62
39613;BME280;25303;48.896;13.342;2023-02-26T02:24:08;91787.88;;;-3.10;69.70
39613;BME280;25303;48.896;13.342;2023-02-26T02:27:00;91793.28;;;-3.16;69.28
39613;BME280;25303;48.896;13.342;2023-02-26T02:30:06;91801.75;;;-3.17;69.50
39613;BME280;25303;48.896;13.342;2023-02-26T02:32:58;91795.81;;;-3.29;69.31
39613;BME280;25303;48.896;13.342;2023-02-26T02:35:45;91802.25;;;-3.38;69.86
39613;BME280;25303;48.896;13.342;2023-02-26T02:38:32;91805.88;;;-3.42;69.30
39613;BME280;25303;48.896;13.342;2023-02-26T02:41:20;91807.59;;;-3.42;69.25
39613;BME280;25303;48.896;13.342;2023-02-26T02:44:08;91805.47;;;-3.36;70.03
39613;BME280;25303;48.896;13.342;2023-02-26T02:46:55;91811.81;;;-3.30;70.30
39613;BME280;25303;48.896;13.342;2023-02-26T02:49:45;91805.59;;;-3.24;70.54
39613;BME280;25303;48.896;13.342;2023-02-26T02:52:33;91812.00;;;-3.20;70.73
39613;BME280;25303;48.896;13.342;2023-02-26T02:55:21;91817.56;;;-3.15;70.85
39613;BME280;25303;48.896;13.342;2023-02-26T02:58:08;91817.38;;;-3.12;70.80
39613;BME280;25303;48.896;13.342;2023-02-26T03:00:56;91809.63;;;-3.09;70.81
39613;BME280;25303;48.896;13.342;2023-02-26T03:03:44;91816.25;;;-3.08;70.70
39613;BME280;25303;48.896;13.342;2023-02-26T03:06:30;91822.09;;;-3.07;70.81
39613;BME280;25303;48.896;13.342;2023-02-26T03:09:13;91828.53;;;-3.16;69.74
39613;BME280;25303;48.896;13.342;2023-02-26T03:11:56;91823.63;;;-3.17;70.12
39613;BME280;25303;48.896;13.342;2023-02-26T03:14:40;91828.84;;;-3.21;70.31
39613;BME280;25303;48.896;13.342;2023-02-26T03:17:29;91836.00;;;-3.14;70.11
39613;BME280;25303;48.896;13.342;2023-02-26T03:20:18;91839.13;;;-3.11;70.56
39613;BME280;25303;48.896;13.342;2023-02-26T03:23:14;91844.16;;;-3.11;70.21
39613;BME280;25303;48.896;13.342;2023-02-26T03:26:08;91847.38;;;-3.09;70.49
39613;BME280;25303;48.896;13.342;2023-02-26T03:28:58;91849.91;;;-3.09;70.97
39613;BME280;25303;48.896;13.342;2023-02-26T03:31:49;91855.53;;;-3.05;70.99
39613;BME280;25303;48.896;13.342;2023-02-26T03:34:38;91853.81;;;-3.05;70.84
39613;BME280;25303;48.896;13.342;2023-02-26T03:37:26;91867.00;;;-3.14;69.87
39613;BME280;25303;48.896;13.342;2023-02-26T03:40:18;91867.72;;;-3.12;70.19
39613;BME280;25303;48.896;13.342;2023-02-26T03:43:07;91864.28;;;-3.11;70.34
39613;BME280;25303;48.896;13.342;2023-02-26T03:45:54;91874.56;;;-3.14;70.27
39613;BME280;25303;48.896;13.342;2023-02-26T03:48:40;91880.38;;;-3.13;70.35
39613;BME280;25303;48.896;13.342;2023-02-26T03:51:25;91876.88;;;-3.11;70.90
39613;BME280;25303;48.896;13.342;2023-02-26T03:54:20;91887.44;;;-3.06;70.70
39613;BME280;25303;48.896;13.342;2023-02-26T03:57:20;91889.16;;;-3.06;70.59
39613;BME280;25303;48.896;13.342;2023-02-26T04:00:28;91898.22;;;-3.03;70.60
39613;BME280;25303;48.896;13.342;2023-02-26T04:03:19;91898.03;;;-3.00;70.55
39613;BME280;25303;48.896;13.342;2023-02-26T04:06:04;91898.84;;;-3.00;70.60
39613;BME280;25303;48.896;13.342;2023-02-26T04:08:47;91902.06;;;-2.98;70.65
39613;BME280;25303;48.896;13.342;2023-02-26T04:11:30;91908.09;;;-3.00;70.55
39613;BME280;25303;48.896;13.342;2023-02-26T04:14:15;91914.88;;;-3.01;70.60
39613;BME280;25303;48.896;13.342;2023-02-26T04:16:58;91902.53;;;-3.06;70.52
39613;BME280;25303;48.896;13.342;2023-02-26T04:19:41;91902.53;;;-3.06;70.61
39613;BME280;25303;48.896;13.342;2023-02-26T04:22:25;91905.06;;;-3.06;70.55
39613;BME280;25303;48.896;13.342;2023-02-26T04:25:09;91904.97;;;-3.04;70.71
39613;BME280;25303;48.896;13.342;2023-02-26T04:27:52;91904.97;;;-3.04;70.61
39613;BME280;25303;48.896;13.342;2023-02-26T04:30:36;91916.16;;;-3.08;70.39
39613;BME280;25303;48.896;13.342;2023-02-26T04:33:22;91921.69;;;-3.16;69.31
39613;BME280;25303;48.896;13.342;2023-02-26T04:36:05;91919.28;;;-3.17;69.87
39613;BME280;25303;48.896;13.342;2023-02-26T04:38:49;91923.97;;;-3.26;69.25
39613;BME280;25303;48.896;13.342;2023-02-26T04:41:32;91930.94;;;-3.29;69.32
39613;BME280;25303;48.896;13.342;2023-02-26T04:44:16;91933.28;;;-3.54;68.96
39613;BME280;25303;48.896;13.342;2023-02-26T04:47:00;91929.56;;;-3.48;68.46
39613;BME280;25303;48.896;13.342;2023-02-26T04:49:45;91930.53;;;-3.63;66.84
39613;BME280;25303;48.896;13.342;2023-02-26T04:52:28;91935.66;;;-3.65;67.05
39613;BME280;25303;48.896;13.342;2023-02-26T04:55:12;91935.44;;;-3.62;67.15
39613;BME280;25303;48.896;13.342;2023-02-26T04:57:55;91939.22;;;-3.55;68.08
39613;BME280;25303;48.896;13.342;2023-02-26T05:00:39;91954.31;;;-3.55;68.11
39613;BME280;25303;48.896;13.342;2023-02-26T05:03:23;91956.22;;;-3.58;67.93
39613;BME280;25303;48.896;13.342;2023-02-26T05:06:06;91957.47;;;-3.66;67.45
39613;BME280;25303;48.896;13.342;2023-02-26T05:08:50;91972.94;;;-3.57;68.16
39613;BME280;25303;48.896;13.342;2023-02-26T05:11:33;91975.88;;;-3.51;68.55
39613;BME280;25303;48.896;13.342;2023-02-26T05:14:16;91974.75;;;-3.46;68.82
39613;BME280;25303;48.896;13.342;2023-02-26T05:17:02;91974.69;;;-3.45;68.79
39613;BME280;25303;48.896;13.342;2023-02-26T05:19:46;91976.84;;;-3.53;68.66
39613;BME280;25303;48.896;13.342;2023-02-26T05:22:29;91984.38;;;-3.53;68.78
39613;BME280;25303;48.896;13.342;2023-02-26T05:25:12;91986.72;;;-3.50;69.23
39613;BME280;25303;48.896;13.342;2023-02-26T05:27:55;91987.25;;;-3.45;69.30
39613;BME280;25303;48.896;13.342;2023-02-26T05:30:38;91988.75;;;-3.42;69.30
39613;BME280;25303;48.896;13.342;2023-02-26T05:33:21;91986.97;;;-3.40;69.32
39613;BME280;25303;48.896;13.342;2023-02-26T05:36:06;91985.94;;;-3.38;69.46
39613;BME280;25303;48.896;13.342;2023-02-26T05:38:49;91991.69;;;-3.36;69.59
39613;BME280;25303;48.896;13.342;2023-02-26T05:41:31;91992.53;;;-3.35;69.41
39613;BME280;25303;48.896;13.342;2023-02-26T05:44:14;91994.22;;;-3.36;69.31
39613;BME280;25303;48.896;13.342;2023-02-26T05:46:57;91995.03;;;-3.35;69.43
39613;BME280;25303;48.896;13.342;2023-02-26T05:49:40;91996.56;;;-3.32;69.61
39613;BME280;25303;48.896;13.342;2023-02-26T05:52:24;91997.97;;;-3.28;69.71
39613;BME280;25303;48.896;13.342;2023-02-26T05:55:07;92011.47;;;-3.29;69.42
39613;BME280;25303;48.896;13.342;2023-02-26T05:57:50;92007.44;;;-3.32;69.49
39613;BME280;25303;48.896;13.342;2023-02-26T06:00:33;92015.19;;;-3.35;69.55
39613;BME280;25303;48.896;13.342;2023-02-26T06:03:16;92015.97;;;-3.34;69.66
39613;BME280;25303;48.896;13.342;2023-02-26T06:05:59;92017.59;;;-3.33;69.71
39613;BME280;25303;48.896;13.342;2023-02-26T06:08:43;92031.19;;;-3.36;69.55
39613;BME280;25303;48.896;13.342;2023-02-26T06:11:26;92026.44;;;-3.41;68.65
39613;BME280;25303;48.896;13.342;2023-02-26T06:14:09;92032.97;;;-3.38;69.13
39613;BME280;25303;48.896;13.342;2023-02-26T06:16:52;92034.66;;;-3.39;69.24
39613;BME280;25303;48.896;13.342;2023-02-26T06:19:35;92040.53;;;-3.38;69.33
39613;BME280;25303;48.896;13.342;2023-02-26T06:22:18;92041.06;;;-3.33;69.37
39613;BME280;25303;48.896;13.342;2023-02-26T06:25:02;92041.56;;;-3.28;69.57
39613;BME280;25303;48.896;13.342;2023-02-26T06:27:46;92049.59;;;-3.36;69.23
39613;BME280;25303;48.896;13.342;2023-02-26T06:30:28;92057.13;;;-3.36;69.38
39613;BME280;25303;48.896;13.342;2023-02-26T06:33:11;92055.94;;;-3.30;69.38
39613;BME280;25303;48.896;13.342;2023-02-26T06:35:54;92058.22;;;-3.25;69.27
39613;BME280;25303;48.896;13.342;2023-02-26T06:38:38;92066.47;;;-3.23;69.29
39613;BME280;25303;48.896;13.342;2023-02-26T06:41:22;92072.50;;;-3.26;69.21
39613;BME280;25303;48.896;13.342;2023-02-26T06:44:05;92085.69;;;-3.22;68.45
39613;BME280;25303;48.896;13.342;2023-02-26T06:46:48;92093.59;;;-3.14;68.63
39613;BME280;25303;48.896;13.342;2023-02-26T06:49:31;92101.28;;;-3.02;69.18
39613;BME280;25303;48.896;13.342;2023-02-26T06:52:14;92098.94;;;-2.91;69.05
39613;BME280;25303;48.896;13.342;2023-02-26T06:54:57;92114.66;;;-2.87;69.08
39613;BME280;25303;48.896;13.342;2023-02-26T06:57:41;92103.47;;;-2.83;69.05
39613;BME280;25303;48.896;13.342;2023-02-26T07:00:26;92102.66;;;-2.84;68.91
39613;BME280;25303;48.896;13.342;2023-02-26T07:03:11;92114.97;;;-2.79;68.99
39613;BME280;25303;48.896;13.342;2023-02-26T07:05:54;92123.06;;;-2.74;69.12
39613;BME280;25303;48.896;13.342;2023-02-26T07:08:39;92124.78;;;-2.62;69.25
39613;BME280;25303;48.896;13.342;2023-02-26T07:11:23;92132.41;;;-2.49;69.34
39613;BME280;25303;48.896;13.342;2023-02-26T07:14:07;92131.19;;;-2.43;68.21
39613;BME280;25303;48.896;13.342;2023-02-26T07:16:50;92138.78;;;-2.30;68.83
39613;BME280;25303;48.896;13.342;2023-02-26T07:19:33;92140.31;;;-2.15;68.88
39613;BME280;25303;48.896;13.342;2023-02-26T07:22:16;92148.41;;;-1.96;69.08
39613;BME280;25303;48.896;13.342;2023-02-26T07:25:02;92135.91;;;-1.85;68.73
39613;BME280;25303;48.896;13.342;2023-02-26T07:27:45;92149.22;;;-1.70;68.49
39613;BME280;25303;48.896;13.342;2023-02-26T07:30:30;92149.13;;;-1.56;68.36
39613;BME280;25303;48.896;13.342;2023-02-26T07:33:13;92154.88;;;-1.41;68.32
39613;BME280;25303;48.896;13.342;2023-02-26T07:35:56;92171.13;;;-1.19;68.55
39613;BME280;25303;48.896;13.342;2023-02-26T07:38:39;92174.53;;;-1.20;67.41
39613;BME280;25303;48.896;13.342;2023-02-26T07:41:22;92161.66;;;-0.91;68.04
39613;BME280;25303;48.896;13.342;2023-02-26T07:44:05;92167.22;;;-0.62;67.94
39613;BME280;25303;48.896;13.342;2023-02-26T07:46:50;92170.66;;;-0.38;67.41
39613;BME280;25303;48.896;13.342;2023-02-26T07:49:32;92162.03;;;-0.60;63.29
39613;BME280;25303;48.896;13.342;2023-02-26T07:52:15;92171.22;;;-0.83;62.72
39613;BME280;25303;48.896;13.342;2023-02-26T07:54:58;92167.34;;;-1.00;62.60
39613;BME280;25303;48.896;13.342;2023-02-26T07:57:41;92178.06;;;-1.10;61.53
39613;BME280;25303;48.896;13.342;2023-02-26T08:00:24;92178.63;;;-1.43;61.12
39613;BME280;25303;48.896;13.342;2023-02-26T08:03:08;92177.16;;;-1.99;60.08
39613;BME280;25303;48.896;13.342;2023-02-26T08:05:51;92183.56;;;-1.80;61.77
39613;BME280;25303;48.896;13.342;2023-02-26T08:08:34;92192.75;;;-1.79;60.92
39613;BME280;25303;48.896;13.342;2023-02-26T08:11:17;92190.03;;;-1.76;61.49
39613;BME280;25303;48.896;13.342;2023-02-26T08:13:59;92200.81;;;-1.74;59.53
39613;BME280;25303;48.896;13.342;2023-02-26T08:16:42;92211.09;;;-1.64;60.97
39613;BME280;25303;48.896;13.342;2023-02-26T08:19:26;92214.25;;;-1.61;60.64
39613;BME280;25303;48.896;13.342;2023-02-26T08:22:09;92215.06;;;-1.47;61.06
39613;BME280;25303;48.896;13.342;2023-02-26T08:24:52;92213.34;;;-1.47;60.87
39613;BME280;25303;48.896;13.342;2023-02-26T08:27:36;92217.19;;;-1.54;59.83
39613;BME280;25303;48.896;13.342;2023-02-26T08:30:19;92222.75;;;-1.62;60.01
39613;BME280;25303;48.896;13.342;2023-02-26T08:33:02;92221.31;;;-1.53;61.15
39613;BME280;25303;48.896;13.342;2023-02-26T08:35:47;92227.91;;;-1.38;61.76
39613;BME280;25303;48.896;13.342;2023-02-26T08:38:31;92226.88;;;-1.35;60.72
39613;BME280;25303;48.896;13.342;2023-02-26T08:41:13;92227.28;;;-1.41;59.52
39613;BME280;25303;48.896;13.342;2023-02-26T08:43:57;92237.47;;;-1.56;59.58
39613;BME280;25303;48.896;13.342;2023-02-26T08:46:40;92229.56;;;-1.77;59.24
39613;BME280;25303;48.896;13.342;2023-02-26T08:49:22;92230.56;;;-1.92;59.28
39613;BME280;25303;48.896;13.342;2023-02-26T08:52:07;92243.09;;;-1.78;60.40
39613;BME280;25303;48.896;13.342;2023-02-26T08:54:49;92248.28;;;-1.41;61.17
39613;BME280;25303;48.896;13.342;2023-02-26T08:57:32;92246.66;;;-1.03;60.86
39613;BME280;25303;48.896;13.342;2023-02-26T09:00:16;92255.91;;;-0.78;59.16
39613;BME280;25303;48.896;13.342;2023-02-26T09:02:59;92256.59;;;-0.63;58.53
39613;BME280;25303;48.896;13.342;2023-02-26T09:05:42;92257.00;;;-0.56;58.33
39613;BME280;25303;48.896;13.342;2023-02-26T09:08:26;92266.97;;;-0.41;59.10
39613;BME280;25303;48.896;13.342;2023-02-26T09:11:09;92260.78;;;-0.37;58.16
39613;BME280;25303;48.896;13.342;2023-02-26T09:13:52;92271.31;;;-0.43;57.26
39613;BME280;25303;48.896;13.342;2023-02-26T09:16:35;92275.47;;;-0.42;57.57
39613;BME280;25303;48.896;13.342;2023-02-26T09:19:19;92279.44;;;-0.51;56.45
39613;BME280;25303;48.896;13.342;2023-02-26T09:22:03;92282.78;;;-0.51;56.61
39613;BME280;25303;48.896;13.342;2023-02-26T09:24:48;92292.03;;;-0.38;57.82
39613;BME280;25303;48.896;13.342;2023-02-26T09:27:31;92296.78;;;-0.34;57.02
39613;BME280;25303;48.896;13.342;2023-02-26T09:30:15;92297.47;;;-0.19;58.13
39613;BME280;25303;48.896;13.342;2023-02-26T09:32:58;92314.38;;;-0.32;56.89
39613;BME280;25303;48.896;13.342;2023-02-26T09:35:41;92318.97;;;-0.63;56.84
39613;BME280;25303;48.896;13.342;2023-02-26T09:38:24;92324.47;;;-1.08;56.20
39613;BME280;25303;48.896;13.342;2023-02-26T09:41:15;92327.97;;;-1.24;57.49
39613;BME280;25303;48.896;13.342;2023-02-26T09:44:22;92325.16;;;-1.06;57.79
39613;BME280;25303;48.896;13.342;2023-02-26T09:47:12;92333.03;;;-0.72;57.56
39613;BME280;25303;48.896;13.342;2023-02-26T09:50:02;92330.75;;;-0.25;57.76
39613;BME280;25303;48.896;13.342;2023-02-26T09:52:52;92327.63;;;-0.28;56.27
39613;BME280;25303;48.896;13.342;2023-02-26T09:55:40;92329.25;;;-0.27;55.03
39613;BME280;25303;48.896;13.342;2023-02-26T09:58:28;92339.72;;;-0.45;54.00
39613;BME280;25303;48.896;13.342;2023-02-26T10:01:16;92341.38;;;-0.83;54.15
39613;BME280;25303;48.896;13.342;2023-02-26T10:04:06;92351.66;;;-0.99;55.59
39613;BME280;25303;48.896;13.342;2023-02-26T10:07:03;92356.50;;;-0.57;56.93
39613;BME280;25303;48.896;13.342;2023-02-26T10:09:59;92356.91;;;0.00;55.82
39613;BME280;25303;48.896;13.342;2023-02-26T10:12:45;92348.81;;;0.32;54.81
39613;BME280;25303;48.896;13.342;2023-02-26T10:15:36;92363.22;;;0.43;53.70
39613;BME280;25303;48.896;13.342;2023-02-26T10:18:23;92364.81;;;0.44;53.24
39613;BME280;25303;48.896;13.342;2023-02-26T10:21:10;92366.97;;;0.62;52.84
39613;BME280;25303;48.896;13.342;2023-02-26T10:23:58;92359.84;;;0.31;52.50
39613;BME280;25303;48.896;13.342;2023-02-26T10:26:45;92379.75;;;0.11;52.87
39613;BME280;25303;48.896;13.342;2023-02-26T10:29:34;92373.94;;;-0.02;53.01
39613;BME280;25303;48.896;13.342;2023-02-26T10:32:25;92390.03;;;-0.03;53.82
39613;BME280;25303;48.896;13.342;2023-02-26T10:35:13;92389.06;;;-0.52;53.58
39613;BME280;25303;48.896;13.342;2023-02-26T10:37:58;92392.69;;;-0.31;53.44
39613;BME280;25303;48.896;13.342;2023-02-26T10:40:48;92406.66;;;-0.38;53.43
39613;BME280;25303;48.896;13.342;2023-02-26T10:43:34;92405.97;;;-0.53;53.25
39613;BME280;25303;48.896;13.342;2023-02-26T10:46:25;92415.56;;;-0.71;53.00
39613;BME280;25303;48.896;13.342;2023-02-26T10:49:33;92413.75;;;-0.69;52.48
39613;BME280;25303;48.896;13.342;2023-02-26T10:52:20;92433.34;;;-0.85;52.23
39613;BME280;25303;48.896;13.342;2023-02-26T10:55:23;92421.97;;;-1.18;53.22
39613;BME280;25303;48.896;13.342;2023-02-26T10:58:11;92421.25;;;-1.20;52.85
39613;BME280;25303;48.896;13.342;2023-02-26T11:00:55;92422.78;;;-1.05;53.56
39613;BME280;25303;48.896;13.342;2023-02-26T11:03:40;92422.28;;;-0.97;52.99
39613;BME280;25303;48.896;13.342;2023-02-26T11:06:28;92424.44;;;-0.91;53.46
39613;BME280;25303;48.896;13.342;2023-02-26T11:09:17;92420.00;;;-1.00;53.22
39613;BME280;25303;48.896;13.342;2023-02-26T11:12:04;92418.91;;;-1.24;52.98
39613;BME280;25303;48.896;13.342;2023-02-26T11:14:47;92417.50;;;-1.15;53.44
39613;BME280;25303;48.896;13.342;2023-02-26T11:17:30;92427.31;;;-1.23;52.60
39613;BME280;25303;48.896;13.342;2023-02-26T11:20:23;92425.38;;;-1.19;52.53
39613;BME280;25303;48.896;13.342;2023-02-26T11:23:16;92412.31;;;-0.99;53.70
39613;BME280;25303;48.896;13.342;2023-02-26T11:26:03;92422.84;;;-0.79;52.09
39613;BME280;25303;48.896;13.342;2023-02-26T11:28:49;92424.41;;;-1.04;50.44
39613;BME280;25303;48.896;13.342;2023-02-26T11:31:35;92422.50;;;-0.87;50.62
39613;BME280;25303;48.896;13.342;2023-02-26T11:34:24;92430.00;;;-0.73;50.71
39613;BME280;25303;48.896;13.342;2023-02-26T11:37:07;92416.06;;;-0.79;52.68
39613;BME280;25303;48.896;13.342;2023-02-26T11:39:56;92419.50;;;-0.67;52.71
39613;BME280;25303;48.896;13.342;2023-02-26T11:42:43;92423.41;;;-0.88;52.88
39613;BME280;25303;48.896;13.342;2023-02-26T11:45:29;92414.44;;;-0.93;53.61
39613;BME280;25303;48.896;13.342;2023-02-26T11:48:15;92412.25;;;-1.12;55.09
39613;BME280;25303;48.896;13.342;2023-02-26T11:51:03;92413.00;;;-1.37;56.93
39613;BME280;25303;48.896;13.342;2023-02-26T11:53:49;92414.38;;;-1.59;57.49
39613;BME280;25303;48.896;13.342;2023-02-26T11:56:38;92410.03;;;-1.84;59.03
39613;BME280;25303;48.896;13.342;2023-02-26T11:59:23;92417.50;;;-1.83;60.03
39613;BME280;25303;48.896;13.342;2023-02-26T12:02:11;92410.16;;;-1.73;60.63
39613;BME280;25303;48.896;13.342;2023-02-26T12:04:58;92407.31;;;-1.54;58.99
39613;BME280;25303;48.896;13.342;2023-02-26T12:07:42;92393.88;;;-1.54;58.75
39613;BME280;25303;48.896;13.342;2023-02-26T12:10:42;92395.75;;;-1.43;57.66
39613;BME280;25303;48.896;13.342;2023-02-26T12:13:35;92386.97;;;-1.38;57.18
39613;BME280;25303;48.896;13.342;2023-02-26T12:16:24;92388.00;;;-1.27;57.69
39613;BME280;25303;48.896;13.342;2023-02-26T12:19:17;92385.56;;;-1.29;57.97
39613;BME280;25303;48.896;13.342;2023-02-26T12:22:19;92377.88;;;-1.27;56.17
39613;BME280;25303;48.896;13.342;2023-02-26T12:25:17;92373.16;;;-1.06;56.75
39613;BME280;25303;48.896;13.342;2023-02-26T12:34:54;92357.72;;;-0.63;53.34
39613;BME280;25303;48.896;13.342;2023-02-26T12:37:50;92355.59;;;-0.56;53.56
39613;BME280;25303;48.896;13.342;2023-02-26T12:40:48;92345.88;;;-0.49;53.83
39613;BME280;25303;48.896;13.342;2023-02-26T12:43:41;92332.25;;;-0.59;52.81
39613;BME280;25303;48.896;13.342;2023-02-26T12:46:48;92338.59;;;-0.54;52.87
39613;BME280;25303;48.896;13.342;2023-02-26T12:49:46;92340.63;;;-0.72;51.01
39613;BME280;25303;48.896;13.342;2023-02-26T12:53:09;92357.84;;;-0.90;51.94
39613;BME280;25303;48.896;13.342;2023-02-26T12:56:04;92373.38;;;-0.96;53.33
39613;BME280;25303;48.896;13.342;2023-02-26T12:59:02;92359.34;;;-0.87;53.65
39613;BME280;25303;48.896;13.342;2023-02-26T13:02:05;92375.81;;;-0.82;54.99
39613;BME280;25303;48.896;13.342;2023-02-26T13:05:07;92404.84;;;-0.62;55.20
39613;BME280;25303;48.896;13.342;2023-02-26T13:08:07;92400.09;;;-0.66;55.01
39613;BME280;25303;48.896;13.342;2023-02-26T13:10:58;92405.03;;;-0.90;54.70
39613;BME280;25303;48.896;13.342;2023-02-26T13:13:57;92422.28;;;-0.97;56.40
39613;BME280;25303;48.896;13.342;2023-02-26T13:16:47;92432.88;;;-1.05;55.96
39613;BME280;25303;48.896;13.342;2023-02-26T13:19:40;92433.53;;;-1.01;56.85
39613;BME280;25303;48.896;13.342;2023-02-26T13:22:28;92440.09;;;-0.99;56.59
39613;BME280;25303;48.896;13.342;2023-02-26T13:25:18;92440.72;;;-0.82;55.34
39613;BME280;25303;48.896;13.342;2023-02-26T13:28:13;92448.44;;;-0.58;54.69
39613;BME280;25303;48.896;13.342;2023-02-26T13:31:02;92448.25;;;-0.42;54.43
39613;BME280;25303;48.896;13.342;2023-02-26T13:33:47;92448.72;;;-0.37;53.56
39613;BME280;25303;48.896;13.342;2023-02-26T13:36:32;92446.41;;;-0.27;53.81
39613;BME280;25303;48.896;13.342;2023-02-26T13:39:28;92458.25;;;-0.27;54.02
39613;BME280;25303;48.896;13.342;2023-02-26T13:42:26;92461.59;;;-0.14;54.53
39613;BME280;25303;48.896;13.342;2023-02-26T13:45:22;92452.78;;;-0.08;53.10
39613;BME280;25303;48.896;13.342;2023-02-26T13:48:15;92445.25;;;0.03;53.56
39613;BME280;25303;48.896;13.342;2023-02-26T13:51:04;92455.88;;;0.08;51.10
39613;BME280;25303;48.896;13.342;2023-02-26T13:53:57;92446.06;;;0.17;51.86
39613;BME280;25303;48.896;13.342;2023-02-26T13:56:46;92447.50;;;0.08;51.55
39613;BME280;25303;48.896;13.342;2023-02-26T13:59:36;92435.84;;;-0.08;51.03
39613;BME280;25303;48.896;13.342;2023-02-26T14:02:42;92430.91;;;-0.22;51.34
39613;BME280;25303;48.896;13.342;2023-02-26T14:05:33;92428.09;;;-0.56;50.83
39613;BME280;25303;48.896;13.342;2023-02-26T14:08:44;92432.53;;;-0.73;51.06
39613;BME280;25303;48.896;13.342;2023-02-26T14:11:55;92436.34;;;-0.93;51.95
39613;BME280;25303;48.896;13.342;2023-02-26T14:14:43;92437.53;;;-1.12;53.04
39613;BME280;25303;48.896;13.342;2023-02-26T14:17:36;92451.00;;;-0.98;52.84
39613;BME280;25303;48.896;13.342;2023-02-26T14:20:24;92457.97;;;-1.02;53.74
39613;BME280;25303;48.896;13.342;2023-02-26T14:23:31;92462.06;;;-1.14;54.71
39613;BME280;25303;48.896;13.342;2023-02-26T14:26:17;92470.34;;;-1.25;55.95
39613;BME280;25303;48.896;13.342;2023-02-26T14:29:13;92479.81;;;-1.28;56.64
39613;BME280;25303;48.896;13.342;2023-02-26T14:32:10;92486.97;;;-1.35;57.32
39613;BME280;25303;48.896;13.342;2023-02-26T14:34:57;92491.94;;;-1.48;59.07
39613;BME280;25303;48.896;13.342;2023-02-26T14:37:42;92489.22;;;-1.45;59.00
39613;BME280;25303;48.896;13.342;2023-02-26T14:40:29;92497.56;;;-1.57;60.01
39613;BME280;25303;48.896;13.342;2023-02-26T14:43:19;92496.06;;;-1.74;62.06